Time,TemperatureF,DewpointF,PressureIn,WindDirection,WindDirectionDegrees,WindSpeedMPH,WindSpeedGustMPH,Humidity,HourlyPrecipIn,Conditions,Clouds,dailyrainin,SoftwareType,DateUTC
2013-02-02 00:03:00,28.2,20.4,30.02,WSW,251,1.2,2.1,72,0.00,,,0.00,WUHU216HW,2013-02-02 06:03:00,
2013-02-02 00:08:00,28.0,19.9,30.03,North,359,1.4,2.3,71,0.00,,,0.00,WUHU216HW,2013-02-02 06:08:00,
2013-02-02 00:13:00,28.0,19.9,30.03,NW,325,0.9,1.3,71,0.00,,,0.00,WUHU216HW,2013-02-02 06:13:00,
2013-02-02 00:18:00,27.8,19.7,30.02,NW,315,0.5,0.5,71,0.00,,,0.00,WUHU216HW,2013-02-02 06:18:00,
2013-02-02 00:23:00,27.8,19.7,30.03,North,0,0.0,0.0,71,0.00,,,0.00,WUHU216HW,2013-02-02 06:23:00,
2013-02-02 00:28:00,27.6,19.8,30.03,SW,225,0.4,0.5,72,0.00,,,0.00,WUHU216HW,2013-02-02 06:28:00,
2013-02-02 00:33:00,27.5,19.7,30.03,WSW,252,0.7,1.3,72,0.00,,,0.00,WUHU216HW,2013-02-02 06:33:00,
2013-02-02 00:38:00,27.5,19.7,30.03,West,278,0.7,1.3,72,0.00,,,0.00,WUHU216HW,2013-02-02 06:38:00,
2013-02-02 00:43:00,27.5,19.7,30.03,West,270,0.6,1.0,72,0.00,,,0.00,WUHU216HW,2013-02-02 06:43:00,
2013-02-02 00:48:00,27.5,19.7,30.03,East,90,0.4,0.5,72,0.00,,,0.00,WUHU216HW,2013-02-02 06:48:00,
2013-02-02 00:53:00,27.5,19.7,30.03,ENE,68,0.5,0.5,72,0.00,,,0.00,WUHU216HW,2013-02-02 06:53:00,
2013-02-02 00:58:00,27.5,19.7,30.03,WNW,293,0.4,0.5,72,0.00,,,0.00,WUHU216HW,2013-02-02 06:58:00,
2013-02-02 01:03:00,27.5,19.7,30.03,NNW,334,0.6,1.0,72,0.00,,,0.00,WUHU216HW,2013-02-02 07:03:00,
2013-02-02 01:08:00,27.5,19.7,30.03,NE,39,0.5,1.0,72,0.00,,,0.00,WUHU216HW,2013-02-02 07:08:00,
2013-02-02 01:13:00,27.5,19.7,30.03,North,0,0.0,0.0,72,0.00,,,0.00,WUHU216HW,2013-02-02 07:13:00,
2013-02-02 01:18:00,27.5,19.7,30.03,NNW,338,0.6,1.0,72,0.00,,,0.00,WUHU216HW,2013-02-02 07:18:00,
2013-02-02 01:23:00,27.5,19.7,30.03,NW,310,0.7,1.3,72,0.00,,,0.00,WUHU216HW,2013-02-02 07:23:00,
2013-02-02 01:28:00,27.6,20.2,30.03,NW,313,0.5,1.0,73,0.00,,,0.00,WUHU216HW,2013-02-02 07:28:00,
2013-02-02 01:33:00,27.5,19.7,30.03,WNW,293,0.4,0.5,72,0.00,,,0.00,WUHU216HW,2013-02-02 07:33:00,
2013-02-02 01:38:00,27.5,19.7,30.03,NNW,328,0.3,0.5,72,0.00,,,0.00,WUHU216HW,2013-02-02 07:38:00,
2013-02-02 01:43:00,27.3,19.5,30.03,North,3,0.9,1.5,72,0.00,,,0.00,WUHU216HW,2013-02-02 07:43:00,
2013-02-02 01:48:00,27.1,19.7,30.03,North,6,1.0,1.5,73,0.00,,,0.00,WUHU216HW,2013-02-02 07:48:00,
2013-02-02 01:53:00,27.1,19.7,30.03,North,0,0.9,1.3,73,0.00,,,0.00,WUHU216HW,2013-02-02 07:53:00,
2013-02-02 01:58:00,26.9,19.5,30.03,North,358,1.0,1.5,73,0.00,,,0.00,WUHU216HW,2013-02-02 07:58:00,
2013-02-02 02:05:00,26.9,19.8,30.03,NNW,343,1.3,2.1,74,0.00,,,0.00,WUHU216HW,2013-02-02 08:05:00,
2013-02-02 02:15:00,27.1,19.7,30.04,ENE,70,0.6,1.0,73,0.00,,,0.00,WUHU216HW,2013-02-02 08:15:00,
2013-02-02 02:20:00,26.9,19.8,30.04,North,355,0.9,1.3,74,0.00,,,0.00,WUHU216HW,2013-02-02 08:20:00,
2013-02-02 02:25:00,26.9,19.8,30.04,NNW,328,0.8,1.3,74,0.00,,,0.00,WUHU216HW,2013-02-02 08:25:00,
2013-02-02 02:30:00,26.9,19.8,30.04,NNW,337,0.4,0.8,74,0.00,,,0.00,WUHU216HW,2013-02-02 08:30:00,
2013-02-02 02:35:00,26.9,19.8,30.05,NW,323,0.5,1.3,74,0.00,,,0.00,WUHU216HW,2013-02-02 08:35:00,
2013-02-02 02:40:00,27.1,20.0,30.05,WNW,293,1.1,1.8,74,0.00,,,0.00,WUHU216HW,2013-02-02 08:40:00,
2013-02-02 02:45:00,27.1,20.0,30.06,WNW,301,0.6,1.3,74,0.00,,,0.00,WUHU216HW,2013-02-02 08:45:00,
2013-02-02 02:50:00,27.1,20.3,30.06,NNW,345,0.8,2.1,75,0.00,,,0.00,WUHU216HW,2013-02-02 08:50:00,
2013-02-02 02:55:00,27.3,20.5,30.06,NNW,346,1.2,2.9,75,0.00,,,0.00,WUHU216HW,2013-02-02 08:55:00,
2013-02-02 03:00:00,27.5,20.7,30.06,NNW,335,2.4,3.1,75,0.00,,,0.00,WUHU216HW,2013-02-02 09:00:00,
2013-02-02 03:05:00,27.6,21.4,30.06,NNW,333,4.7,8.5,77,0.00,,,0.00,WUHU216HW,2013-02-02 09:05:00,
2013-02-02 03:10:00,27.6,21.4,30.07,NW,316,4.8,7.7,77,0.00,,,0.00,WUHU216HW,2013-02-02 09:10:00,
2013-02-02 03:15:00,27.8,21.6,30.07,NNW,339,4.1,6.2,77,0.00,,,0.00,WUHU216HW,2013-02-02 09:15:00,
2013-02-02 03:20:00,27.8,21.6,30.06,NNW,338,3.4,4.6,77,0.00,,,0.00,WUHU216HW,2013-02-02 09:20:00,
2013-02-02 03:25:00,27.8,21.6,30.06,NNW,335,3.1,4.9,77,0.00,,,0.00,WUHU216HW,2013-02-02 09:25:00,
2013-02-02 03:30:00,28.2,22.0,30.07,NW,322,2.0,2.9,77,0.00,,,0.00,WUHU216HW,2013-02-02 09:30:00,
2013-02-02 03:35:00,28.4,21.9,30.07,NNW,331,1.3,2.3,76,0.00,,,0.00,WUHU216HW,2013-02-02 09:35:00,
2013-02-02 03:40:00,28.5,22.0,30.07,NNW,342,1.9,3.6,76,0.00,,,0.00,WUHU216HW,2013-02-02 09:40:00,
2013-02-02 03:45:00,28.5,22.0,30.07,NNW,335,3.2,3.9,76,0.00,,,0.00,WUHU216HW,2013-02-02 09:45:00,
2013-02-02 03:50:00,28.5,22.0,30.06,NNW,344,2.0,4.1,76,0.00,,,0.00,WUHU216HW,2013-02-02 09:50:00,
2013-02-02 03:55:00,28.5,21.7,30.06,NNW,335,2.5,4.1,75,0.00,,,0.00,WUHU216HW,2013-02-02 09:55:00,
2013-02-02 04:00:00,28.5,21.7,30.06,NW,323,3.2,4.9,75,0.00,,,0.00,WUHU216HW,2013-02-02 10:00:00,
2013-02-02 04:05:00,28.4,21.6,30.06,NNW,332,3.2,5.4,75,0.00,,,0.00,WUHU216HW,2013-02-02 10:05:00,
2013-02-02 04:10:00,28.4,21.6,30.06,NNW,348,1.6,3.1,75,0.00,,,0.00,WUHU216HW,2013-02-02 10:10:00,
2013-02-02 04:15:00,28.5,21.7,30.06,NNW,330,1.1,2.1,75,0.00,,,0.00,WUHU216HW,2013-02-02 10:15:00,
2013-02-02 04:20:00,28.5,22.0,30.07,NNW,333,2.5,3.9,76,0.00,,,0.00,WUHU216HW,2013-02-02 10:20:00,
2013-02-02 04:25:00,28.7,21.9,30.07,NW,326,2.6,4.9,75,0.00,,,0.00,WUHU216HW,2013-02-02 10:25:00,
2013-02-02 04:30:00,28.7,21.9,30.07,NNW,331,3.9,6.2,75,0.00,,,0.00,WUHU216HW,2013-02-02 10:30:00,
2013-02-02 04:35:00,28.5,21.7,30.07,NW,320,4.8,7.5,75,0.00,,,0.00,WUHU216HW,2013-02-02 10:35:00,
2013-02-02 04:40:00,28.4,21.6,30.07,NW,318,4.9,6.2,75,0.00,,,0.00,WUHU216HW,2013-02-02 10:40:00,
2013-02-02 04:45:00,28.4,21.6,30.07,NNW,330,3.5,7.2,75,0.00,,,0.00,WUHU216HW,2013-02-02 10:45:00,
2013-02-02 04:50:00,28.5,21.7,30.07,NNW,330,4.3,5.4,75,0.00,,,0.00,WUHU216HW,2013-02-02 10:50:00,
2013-02-02 04:55:00,28.4,21.6,30.07,NNW,333,4.1,6.7,75,0.00,,,0.00,WUHU216HW,2013-02-02 10:55:00,
2013-02-02 05:00:00,28.4,21.6,30.07,NW,323,4.3,7.7,75,0.00,,,0.00,WUHU216HW,2013-02-02 11:00:00,
2013-02-02 05:05:00,28.5,22.0,30.07,NNW,334,4.0,6.9,76,0.00,,,0.00,WUHU216HW,2013-02-02 11:05:00,
2013-02-02 05:10:00,28.5,21.7,30.07,NNW,347,3.7,6.4,75,0.00,,,0.00,WUHU216HW,2013-02-02 11:10:00,
2013-02-02 05:15:00,28.5,22.0,30.08,NNW,343,4.2,6.9,76,0.00,,,0.00,WUHU216HW,2013-02-02 11:15:00,
2013-02-02 05:20:00,28.4,21.9,30.08,NNW,331,5.1,8.5,76,0.00,,,0.00,WUHU216HW,2013-02-02 11:20:00,
2013-02-02 05:25:00,28.4,21.9,30.08,NNW,335,3.6,6.2,76,0.00,,,0.00,WUHU216HW,2013-02-02 11:25:00,
2013-02-02 05:30:00,28.4,21.6,30.08,North,2,3.5,5.4,75,0.00,,,0.00,WUHU216HW,2013-02-02 11:30:00,
2013-02-02 05:35:00,28.4,21.6,30.08,NNW,339,4.2,6.9,75,0.00,,,0.00,WUHU216HW,2013-02-02 11:35:00,
2013-02-02 05:40:00,28.4,21.6,30.09,NNW,344,4.8,6.4,75,0.00,,,0.00,WUHU216HW,2013-02-02 11:40:00,
2013-02-02 05:45:00,28.4,21.6,30.09,NNW,332,5.0,8.7,75,0.00,,,0.00,WUHU216HW,2013-02-02 11:45:00,
2013-02-02 05:50:00,28.2,21.4,30.09,NNW,348,5.5,7.7,75,0.00,,,0.00,WUHU216HW,2013-02-02 11:50:00,
2013-02-02 05:55:00,28.2,21.4,30.09,NNW,336,3.4,7.2,75,0.00,,,0.00,WUHU216HW,2013-02-02 11:55:00,
2013-02-02 06:00:00,28.2,21.4,30.09,NNW,339,5.3,7.9,75,0.00,,,0.00,WUHU216HW,2013-02-02 12:00:00,
2013-02-02 06:05:00,28.2,21.1,30.09,NNW,340,4.7,8.3,74,0.00,,,0.00,WUHU216HW,2013-02-02 12:05:00,
2013-02-02 06:10:00,28.0,21.2,30.09,North,349,4.4,7.5,75,0.00,,,0.00,WUHU216HW,2013-02-02 12:10:00,
2013-02-02 06:15:00,28.0,21.2,30.09,NNW,332,3.9,7.2,75,0.00,,,0.00,WUHU216HW,2013-02-02 12:15:00,
2013-02-02 06:20:00,27.8,20.7,30.10,NNW,337,5.5,8.7,74,0.00,,,0.00,WUHU216HW,2013-02-02 12:20:00,
2013-02-02 06:25:00,27.8,21.0,30.10,NNW,341,4.5,6.2,75,0.00,,,0.00,WUHU216HW,2013-02-02 12:25:00,
2013-02-02 06:30:00,27.6,21.1,30.10,NNW,344,5.2,8.7,76,0.00,,,0.00,WUHU216HW,2013-02-02 12:30:00,
2013-02-02 06:35:00,27.5,20.7,30.10,NNW,344,5.2,9.8,75,0.00,,,0.00,WUHU216HW,2013-02-02 12:35:00,
2013-02-02 06:40:00,27.5,21.0,30.10,North,354,3.7,5.6,76,0.00,,,0.00,WUHU216HW,2013-02-02 12:40:00,
2013-02-02 06:45:00,27.1,20.9,30.10,NNW,345,5.2,7.7,77,0.00,,,0.00,WUHU216HW,2013-02-02 12:45:00,
2013-02-02 06:50:00,27.1,20.9,30.10,NNW,344,4.6,5.4,77,0.00,,,0.00,WUHU216HW,2013-02-02 12:50:00,
2013-02-02 06:55:00,26.9,21.0,30.11,NNW,344,4.4,6.4,78,0.00,,,0.00,WUHU216HW,2013-02-02 12:55:00,
2013-02-02 07:00:00,26.7,21.1,30.11,NNW,345,4.2,6.2,79,0.00,,,0.00,WUHU216HW,2013-02-02 13:00:00,
2013-02-02 07:05:00,26.7,21.1,30.11,NNW,330,4.0,6.2,79,0.00,,,0.00,WUHU216HW,2013-02-02 13:05:00,
2013-02-02 07:10:00,26.9,21.3,30.12,NNW,338,4.2,6.2,79,0.00,,,0.00,WUHU216HW,2013-02-02 13:10:00,
2013-02-02 07:15:00,26.9,21.3,30.12,NNW,343,3.2,5.9,79,0.00,,,0.00,WUHU216HW,2013-02-02 13:15:00,
2013-02-02 07:20:00,26.9,21.3,30.11,NNW,341,4.1,6.9,79,0.00,,,0.00,WUHU216HW,2013-02-02 13:20:00,
2013-02-02 07:25:00,27.1,21.2,30.11,NNW,336,4.1,5.4,78,0.00,,,0.00,WUHU216HW,2013-02-02 13:25:00,
2013-02-02 07:30:00,27.1,20.9,30.11,North,350,3.8,5.9,77,0.00,,,0.00,WUHU216HW,2013-02-02 13:30:00,
2013-02-02 07:35:00,26.9,20.4,30.11,NNW,341,4.4,7.5,76,0.00,,,0.00,WUHU216HW,2013-02-02 13:35:00,
2013-02-02 07:40:00,26.9,20.1,30.12,North,351,3.9,5.4,75,0.00,,,0.00,WUHU216HW,2013-02-02 13:40:00,
2013-02-02 07:45:00,26.9,20.1,30.12,NNW,345,2.8,3.9,75,0.00,,,0.00,WUHU216HW,2013-02-02 13:45:00,
2013-02-02 07:50:00,26.9,20.1,30.12,North,0,2.1,3.6,75,0.00,,,0.00,WUHU216HW,2013-02-02 13:50:00,
2013-02-02 07:55:00,27.3,20.5,30.12,North,350,4.2,7.9,75,0.00,,,0.00,WUHU216HW,2013-02-02 13:55:00,
2013-02-02 08:00:00,27.5,20.1,30.12,North,359,4.9,7.9,73,0.00,,,0.00,WUHU216HW,2013-02-02 14:00:00,
2013-02-02 08:05:00,27.5,19.7,30.13,NNW,347,5.7,8.5,72,0.00,,,0.00,WUHU216HW,2013-02-02 14:05:00,
2013-02-02 08:10:00,27.1,19.4,30.13,North,350,4.6,7.2,72,0.00,,,0.00,WUHU216HW,2013-02-02 14:10:00,
2013-02-02 08:15:00,27.3,19.9,30.12,North,351,4.2,5.6,73,0.00,,,0.00,WUHU216HW,2013-02-02 14:15:00,
2013-02-02 08:20:00,27.1,19.4,30.13,NNW,342,4.4,7.2,72,0.00,,,0.00,WUHU216HW,2013-02-02 14:20:00,
2013-02-02 08:25:00,27.1,19.4,30.13,North,359,2.8,4.1,72,0.00,,,0.00,WUHU216HW,2013-02-02 14:25:00,
2013-02-02 08:30:00,27.1,19.4,30.13,NNW,329,2.7,4.4,72,0.00,,,0.00,WUHU216HW,2013-02-02 14:30:00,
2013-02-02 08:35:00,27.1,19.4,30.13,North,358,3.2,6.4,72,0.00,,,0.00,WUHU216HW,2013-02-02 14:35:00,
2013-02-02 08:40:00,26.9,19.2,30.13,North,350,4.3,7.9,72,0.00,,,0.00,WUHU216HW,2013-02-02 14:40:00,
2013-02-02 08:45:00,26.7,19.0,30.13,North,3,5.7,7.9,72,0.00,,,0.00,WUHU216HW,2013-02-02 14:45:00,
2013-02-02 08:50:00,26.4,18.7,30.13,North,354,5.2,7.2,72,0.00,,,0.00,WUHU216HW,2013-02-02 14:50:00,
2013-02-02 08:55:00,26.4,18.7,30.14,NNW,344,6.2,8.5,72,0.00,,,0.00,WUHU216HW,2013-02-02 14:55:00,
2013-02-02 09:00:00,26.2,18.5,30.14,North,357,3.5,6.2,72,0.00,,,0.00,WUHU216HW,2013-02-02 15:00:00,
2013-02-02 09:05:00,26.2,18.5,30.14,NNW,344,5.5,7.5,72,0.00,,,0.00,WUHU216HW,2013-02-02 15:05:00,
2013-02-02 09:10:00,26.4,18.4,30.14,NNW,345,5.1,7.5,71,0.00,,,0.00,WUHU216HW,2013-02-02 15:10:00,
2013-02-02 09:15:00,26.4,18.4,30.15,North,352,4.6,6.7,71,0.00,,,0.00,WUHU216HW,2013-02-02 15:15:00,
2013-02-02 09:20:00,26.4,18.0,30.15,North,352,4.6,6.4,70,0.00,,,0.00,WUHU216HW,2013-02-02 15:20:00,
2013-02-02 09:25:00,26.4,18.4,30.15,North,5,3.9,6.9,71,0.00,,,0.00,WUHU216HW,2013-02-02 15:25:00,
2013-02-02 09:30:00,26.4,18.4,30.15,North,352,3.6,6.2,71,0.00,,,0.00,WUHU216HW,2013-02-02 15:30:00,
2013-02-02 09:35:00,26.4,18.4,30.15,North,354,3.3,4.9,71,0.00,,,0.00,WUHU216HW,2013-02-02 15:35:00,
2013-02-02 09:40:00,26.6,18.5,30.15,NNW,333,3.7,6.2,71,0.00,,,0.00,WUHU216HW,2013-02-02 15:40:00,
2013-02-02 09:45:00,26.6,18.2,30.15,NNW,342,4.9,6.2,70,0.00,,,0.00,WUHU216HW,2013-02-02 15:45:00,
2013-02-02 09:50:00,26.4,18.4,30.14,NNW,342,3.3,4.4,71,0.00,,,0.00,WUHU216HW,2013-02-02 15:50:00,
2013-02-02 09:55:00,26.7,18.6,30.14,NNW,347,4.0,6.2,71,0.00,,,0.00,WUHU216HW,2013-02-02 15:55:00,
2013-02-02 10:00:00,26.9,18.5,30.14,NNW,344,4.4,5.9,70,0.00,,,0.00,WUHU216HW,2013-02-02 16:00:00,
2013-02-02 10:05:00,26.9,18.5,30.14,North,355,2.9,6.7,70,0.00,,,0.00,WUHU216HW,2013-02-02 16:05:00,
2013-02-02 10:10:00,26.9,18.5,30.14,North,356,4.5,6.7,70,0.00,,,0.00,WUHU216HW,2013-02-02 16:10:00,
2013-02-02 10:15:00,26.9,18.5,30.15,NNW,344,4.0,6.2,70,0.00,,,0.00,WUHU216HW,2013-02-02 16:15:00,
2013-02-02 10:20:00,27.1,18.7,30.15,NNW,343,2.8,5.4,70,0.00,,,0.00,WUHU216HW,2013-02-02 16:20:00,
2013-02-02 10:25:00,27.3,18.9,30.14,NNW,345,2.4,4.9,70,0.00,,,0.00,WUHU216HW,2013-02-02 16:25:00,
2013-02-02 10:30:00,27.6,19.2,30.15,NNW,342,2.1,4.6,70,0.00,,,0.00,WUHU216HW,2013-02-02 16:30:00,
2013-02-02 10:35:00,28.0,19.6,30.15,NNW,329,2.5,4.6,70,0.00,,,0.00,WUHU216HW,2013-02-02 16:35:00,
2013-02-02 10:40:00,28.2,19.4,30.15,NW,323,2.9,4.6,69,0.00,,,0.00,WUHU216HW,2013-02-02 16:40:00,
2013-02-02 10:45:00,28.4,19.6,30.15,North,356,2.2,3.9,69,0.00,,,0.00,WUHU216HW,2013-02-02 16:45:00,
2013-02-02 10:50:00,28.5,19.4,30.15,NW,321,2.0,5.9,68,0.00,,,0.00,WUHU216HW,2013-02-02 16:50:00,
2013-02-02 10:55:00,28.7,19.6,30.15,NNW,340,3.9,5.9,68,0.00,,,0.00,WUHU216HW,2013-02-02 16:55:00,
2013-02-02 11:00:00,28.7,19.9,30.15,NE,34,1.5,3.6,69,0.00,,,0.00,WUHU216HW,2013-02-02 17:00:00,
2013-02-02 11:05:00,28.7,19.9,30.15,NNE,13,1.4,3.1,69,0.00,,,0.00,WUHU216HW,2013-02-02 17:05:00,
2013-02-02 11:10:00,28.7,19.2,30.14,NNW,345,3.7,5.9,67,0.00,,,0.00,WUHU216HW,2013-02-02 17:10:00,
2013-02-02 11:15:00,28.9,19.8,30.14,NNW,333,3.4,6.2,68,0.00,,,0.00,WUHU216HW,2013-02-02 17:15:00,
2013-02-02 11:20:00,29.1,20.0,30.15,NNW,348,2.5,5.4,68,0.00,,,0.00,WUHU216HW,2013-02-02 17:20:00,
2013-02-02 11:25:00,29.4,20.2,30.15,NNW,336,2.0,3.9,68,0.00,,,0.00,WUHU216HW,2013-02-02 17:25:00,
2013-02-02 11:30:00,29.8,20.3,30.14,NNW,347,2.1,4.9,67,0.00,,,0.00,WUHU216HW,2013-02-02 17:30:00,
2013-02-02 11:35:00,30.3,21.0,30.15,North,351,1.1,2.3,68,0.00,,,0.00,WUHU216HW,2013-02-02 17:35:00,
2013-02-02 11:40:00,30.4,20.8,30.15,WNW,298,3.0,5.9,67,0.00,,,0.00,WUHU216HW,2013-02-02 17:40:00,
2013-02-02 11:45:00,30.6,21.3,30.14,West,259,1.6,2.9,68,0.00,,,0.00,WUHU216HW,2013-02-02 17:45:00,
2013-02-02 11:50:00,30.8,21.5,30.15,WNW,297,2.5,4.4,68,0.00,,,0.00,WUHU216HW,2013-02-02 17:50:00,
2013-02-02 11:55:00,31.0,21.7,30.14,West,274,1.5,2.5,68,0.00,,,0.00,WUHU216HW,2013-02-02 17:55:00,
2013-02-02 12:00:00,31.2,21.9,30.14,WNW,296,2.4,3.9,68,0.00,,,0.00,WUHU216HW,2013-02-02 18:00:00,
2013-02-02 12:05:00,31.2,21.5,30.14,NW,326,2.5,3.9,67,0.00,,,0.00,WUHU216HW,2013-02-02 18:05:00,
2013-02-02 12:10:00,31.2,21.5,30.14,West,271,1.6,2.3,67,0.00,,,0.00,WUHU216HW,2013-02-02 18:10:00,
2013-02-02 12:15:00,31.2,21.2,30.13,North,350,1.1,2.9,66,0.00,,,0.00,WUHU216HW,2013-02-02 18:15:00,
2013-02-02 12:20:00,31.0,21.3,30.13,NNW,338,1.4,3.6,67,0.00,,,0.00,WUHU216HW,2013-02-02 18:20:00,
2013-02-02 12:25:00,31.2,21.5,30.13,WNW,290,1.3,3.6,67,0.00,,,0.00,WUHU216HW,2013-02-02 18:25:00,
2013-02-02 12:30:00,31.3,21.6,30.13,WNW,301,1.8,2.9,67,0.00,,,0.00,WUHU216HW,2013-02-02 18:30:00,
2013-02-02 12:35:00,31.5,21.5,30.13,WNW,283,1.8,2.9,66,0.00,,,0.00,WUHU216HW,2013-02-02 18:35:00,
2013-02-02 12:40:00,31.7,22.0,30.12,WNW,291,1.5,3.9,67,0.00,,,0.00,WUHU216HW,2013-02-02 18:40:00,
2013-02-02 12:46:00,31.7,22.0,30.12,West,268,1.3,2.1,67,0.00,,,0.00,WUHU216HW,2013-02-02 18:46:00,
2013-02-02 12:51:00,31.9,22.2,30.11,WSW,251,0.9,2.1,67,0.01,,,0.01,WUHU216HW,2013-02-02 18:51:00,
2013-02-02 12:56:00,32.2,23.2,30.11,SW,230,1.9,2.9,69,0.01,,,0.01,WUHU216HW,2013-02-02 18:56:00,
2013-02-02 13:01:00,32.8,23.8,30.11,WSW,238,2.1,3.6,69,0.01,,,0.01,WUHU216HW,2013-02-02 19:01:00,
2013-02-02 13:06:00,33.0,23.6,30.11,SSW,197,2.1,4.6,68,0.01,,,0.01,WUHU216HW,2013-02-02 19:06:00,
2013-02-02 13:11:00,33.1,23.7,30.11,SW,228,1.9,5.4,68,0.01,,,0.01,WUHU216HW,2013-02-02 19:11:00,
2013-02-02 13:16:00,33.1,23.7,30.11,SSW,199,3.2,5.4,68,0.01,,,0.01,WUHU216HW,2013-02-02 19:16:00,
2013-02-02 13:21:00,33.1,23.7,30.10,SW,215,2.6,4.6,68,0.01,,,0.01,WUHU216HW,2013-02-02 19:21:00,
2013-02-02 13:26:00,33.3,23.6,30.08,South,171,1.9,3.1,67,0.01,,,0.01,WUHU216HW,2013-02-02 19:26:00,
2013-02-02 13:31:00,33.0,23.3,30.09,South,176,3.3,5.6,67,0.01,,,0.01,WUHU216HW,2013-02-02 19:31:00,
2013-02-02 13:36:00,33.5,24.1,30.10,SSW,194,4.6,7.2,68,0.01,,,0.01,WUHU216HW,2013-02-02 19:36:00,
2013-02-02 13:41:00,33.7,23.9,30.10,SSW,196,4.0,7.2,67,0.01,,,0.01,WUHU216HW,2013-02-02 19:41:00,
2013-02-02 13:46:00,33.7,23.9,30.10,SSW,200,3.1,6.9,67,0.01,,,0.01,WUHU216HW,2013-02-02 19:46:00,
2013-02-02 13:51:00,33.9,24.5,30.10,SW,220,2.8,6.2,68,0.00,,,0.01,WUHU216HW,2013-02-02 19:51:00,
2013-02-02 13:56:00,34.2,24.8,30.10,SW,214,2.5,5.9,68,0.00,,,0.01,WUHU216HW,2013-02-02 19:56:00,
2013-02-02 14:01:00,34.4,25.0,30.11,SW,229,2.7,3.9,68,0.00,,,0.01,WUHU216HW,2013-02-02 20:01:00,
2013-02-02 14:06:00,34.4,25.0,30.10,SSW,207,3.3,6.9,68,0.00,,,0.01,WUHU216HW,2013-02-02 20:06:00,
2013-02-02 14:11:00,34.4,25.0,30.10,SSW,205,3.9,5.4,68,0.00,,,0.01,WUHU216HW,2013-02-02 20:11:00,
2013-02-02 14:16:00,34.2,24.8,30.10,SW,235,3.1,3.9,68,0.00,,,0.01,WUHU216HW,2013-02-02 20:16:00,
2013-02-02 14:21:00,34.0,24.6,30.09,SSW,212,1.8,4.1,68,0.00,,,0.01,WUHU216HW,2013-02-02 20:21:00,
2013-02-02 14:26:00,34.0,24.9,30.09,SSW,204,3.2,4.9,69,0.00,,,0.01,WUHU216HW,2013-02-02 20:26:00,
2013-02-02 14:31:00,34.0,24.6,30.08,SSE,165,3.5,4.9,68,0.00,,,0.01,WUHU216HW,2013-02-02 20:31:00,
2013-02-02 14:36:00,33.9,24.5,30.08,SSE,162,3.1,5.6,68,0.00,,,0.01,WUHU216HW,2013-02-02 20:36:00,
2013-02-02 14:41:00,33.7,24.3,30.08,SSE,164,2.8,4.6,68,0.00,,,0.01,WUHU216HW,2013-02-02 20:41:00,
2013-02-02 14:46:00,33.7,24.6,30.08,South,172,3.6,5.9,69,0.00,,,0.01,WUHU216HW,2013-02-02 20:46:00,
2013-02-02 14:51:00,33.7,24.6,30.07,SSW,200,3.2,5.4,69,0.00,,,0.01,WUHU216HW,2013-02-02 20:51:00,
2013-02-02 14:56:00,33.9,24.8,30.07,SSE,159,2.5,6.2,69,0.00,,,0.01,WUHU216HW,2013-02-02 20:56:00,
2013-02-02 15:01:00,33.9,24.8,30.07,SE,139,2.5,3.9,69,0.00,,,0.01,WUHU216HW,2013-02-02 21:01:00,
2013-02-02 15:06:00,33.7,24.6,30.07,South,170,2.7,4.6,69,0.00,,,0.01,WUHU216HW,2013-02-02 21:06:00,
2013-02-02 15:11:00,33.9,25.2,30.06,SSE,155,3.3,5.4,70,0.00,,,0.01,WUHU216HW,2013-02-02 21:11:00,
2013-02-02 15:16:00,34.0,25.3,30.06,SSE,165,3.2,4.9,70,0.00,,,0.01,WUHU216HW,2013-02-02 21:16:00,
2013-02-02 15:21:00,34.2,25.5,30.06,South,172,3.9,6.7,70,0.00,,,0.01,WUHU216HW,2013-02-02 21:21:00,
2013-02-02 15:26:00,34.4,25.3,30.06,SSE,160,3.3,5.2,69,0.00,,,0.01,WUHU216HW,2013-02-02 21:26:00,
2013-02-02 15:31:00,34.4,25.3,30.06,SSE,155,4.2,5.9,69,0.00,,,0.01,WUHU216HW,2013-02-02 21:31:00,
2013-02-02 15:36:00,34.6,26.2,30.06,South,178,4.1,6.4,71,0.00,,,0.01,WUHU216HW,2013-02-02 21:36:00,
2013-02-02 15:41:00,34.9,26.5,30.05,SSE,161,3.2,6.2,71,0.00,,,0.01,WUHU216HW,2013-02-02 21:41:00,
2013-02-02 15:46:00,35.1,26.7,30.04,SSE,164,2.9,6.2,71,0.00,,,0.01,WUHU216HW,2013-02-02 21:46:00,
2013-02-02 15:51:00,35.1,26.7,30.04,SSE,159,4.7,6.4,71,0.00,,,0.01,WUHU216HW,2013-02-02 21:51:00,
2013-02-02 15:56:00,35.1,26.7,30.03,South,185,4.0,5.9,71,0.00,,,0.01,WUHU216HW,2013-02-02 21:56:00,
2013-02-02 16:01:00,35.3,26.9,30.04,SSE,160,4.8,7.5,71,0.00,,,0.01,WUHU216HW,2013-02-02 22:01:00,
2013-02-02 16:06:00,35.3,26.9,30.03,SSE,160,5.3,7.9,71,0.00,,,0.01,WUHU216HW,2013-02-02 22:06:00,
2013-02-02 16:11:00,35.3,26.9,30.03,SSW,196,5.3,8.7,71,0.00,,,0.01,WUHU216HW,2013-02-02 22:11:00,
2013-02-02 16:16:00,35.5,27.1,30.03,SSE,165,3.9,6.9,71,0.00,,,0.01,WUHU216HW,2013-02-02 22:16:00,
2013-02-02 16:21:00,35.3,26.9,30.03,South,172,4.7,8.3,71,0.00,,,0.01,WUHU216HW,2013-02-02 22:21:00,
2013-02-02 16:26:00,35.1,26.7,30.02,SSE,167,4.2,7.2,71,0.00,,,0.01,WUHU216HW,2013-02-02 22:26:00,
2013-02-02 16:31:00,35.1,26.7,30.02,South,175,3.9,6.7,71,0.00,,,0.01,WUHU216HW,2013-02-02 22:31:00,
2013-02-02 16:36:00,35.1,27.0,30.02,South,191,3.3,4.6,72,0.00,,,0.01,WUHU216HW,2013-02-02 22:36:00,
2013-02-02 16:41:00,35.1,27.0,30.02,South,176,3.3,5.9,72,0.00,,,0.01,WUHU216HW,2013-02-02 22:41:00,
2013-02-02 16:46:00,35.1,27.0,30.02,SSE,166,4.3,6.2,72,0.00,,,0.01,WUHU216HW,2013-02-02 22:46:00,
2013-02-02 16:51:00,35.1,27.0,30.02,South,171,3.2,4.4,72,0.00,,,0.01,WUHU216HW,2013-02-02 22:51:00,
2013-02-02 16:56:00,35.1,27.0,30.01,South,180,3.4,5.2,72,0.00,,,0.01,WUHU216HW,2013-02-02 22:56:00,
2013-02-02 17:01:00,35.1,27.0,30.01,SSE,158,3.2,5.2,72,0.00,,,0.01,WUHU216HW,2013-02-02 23:01:00,
2013-02-02 17:06:00,34.9,27.2,30.01,South,184,3.8,5.4,73,0.00,,,0.01,WUHU216HW,2013-02-02 23:06:00,
2013-02-02 17:11:00,34.9,27.2,30.01,SSE,159,3.5,5.4,73,0.00,,,0.01,WUHU216HW,2013-02-02 23:11:00,
2013-02-02 17:16:00,34.8,27.1,30.02,South,176,3.1,5.2,73,0.00,,,0.01,WUHU216HW,2013-02-02 23:16:00,
2013-02-02 17:21:00,34.8,27.1,30.02,South,174,1.9,3.9,73,0.00,,,0.01,WUHU216HW,2013-02-02 23:21:00,
2013-02-02 17:26:00,34.9,27.2,30.02,South,171,1.7,2.9,73,0.00,,,0.01,WUHU216HW,2013-02-02 23:26:00,
2013-02-02 17:31:00,34.8,27.1,30.01,SSE,152,1.8,3.6,73,0.00,,,0.01,WUHU216HW,2013-02-02 23:31:00,
2013-02-02 17:36:00,34.8,27.1,30.02,SSE,149,1.7,2.9,73,0.00,,,0.01,WUHU216HW,2013-02-02 23:36:00,
2013-02-02 17:41:00,34.8,27.1,30.01,SSE,164,1.5,3.3,73,0.00,,,0.01,WUHU216HW,2013-02-02 23:41:00,
2013-02-02 17:46:00,34.6,26.9,30.01,SSE,157,2.9,4.1,73,0.00,,,0.01,WUHU216HW,2013-02-02 23:46:00,
2013-02-02 17:51:00,34.6,26.9,30.01,SE,137,1.3,2.1,73,0.00,,,0.01,WUHU216HW,2013-02-02 23:51:00,
2013-02-02 17:56:00,34.4,26.7,30.01,SSE,156,2.5,3.9,73,0.00,,,0.01,WUHU216HW,2013-02-02 23:56:00,
2013-02-02 18:01:00,34.4,27.0,30.01,SSE,167,1.4,3.9,74,0.00,,,0.01,WUHU216HW,2013-02-03 00:01:00,
2013-02-02 18:06:00,34.4,26.7,30.01,SSE,153,1.9,4.4,73,0.00,,,0.01,WUHU216HW,2013-02-03 00:06:00,
2013-02-02 18:11:00,34.2,26.8,30.01,SSE,147,2.4,4.4,74,0.00,,,0.01,WUHU216HW,2013-02-03 00:11:00,
2013-02-02 18:16:00,34.0,26.6,30.01,East,93,1.4,2.3,74,0.00,,,0.01,WUHU216HW,2013-02-03 00:16:00,
2013-02-02 18:21:00,34.0,26.9,30.02,ENE,57,2.3,3.9,75,0.00,,,0.01,WUHU216HW,2013-02-03 00:21:00,
2013-02-02 18:26:00,33.9,26.8,30.01,SE,139,2.8,4.4,75,0.00,,,0.01,WUHU216HW,2013-02-03 00:26:00,
2013-02-02 18:31:00,33.9,26.8,30.01,NNE,14,1.7,4.6,75,0.00,,,0.01,WUHU216HW,2013-02-03 00:31:00,
2013-02-02 18:36:00,33.9,27.1,30.03,NNE,23,2.3,4.6,76,0.00,,,0.01,WUHU216HW,2013-02-03 00:36:00,
2013-02-02 18:41:00,33.7,26.9,30.04,North,6,2.2,5.2,76,0.00,,,0.01,WUHU216HW,2013-02-03 00:41:00,
2013-02-02 18:46:00,33.7,26.9,30.04,North,354,2.0,4.1,76,0.00,,,0.01,WUHU216HW,2013-02-03 00:46:00,
2013-02-02 18:51:00,33.9,27.8,30.03,ENE,65,3.1,5.4,78,0.00,,,0.01,WUHU216HW,2013-02-03 00:51:00,
2013-02-02 18:56:00,33.7,27.3,30.03,North,6,2.1,3.1,77,0.00,,,0.01,WUHU216HW,2013-02-03 00:56:00,
2013-02-02 19:01:00,33.9,27.5,30.03,SW,225,0.8,1.0,77,0.00,,,0.01,WUHU216HW,2013-02-03 01:01:00,
2013-02-02 19:06:00,34.0,27.5,30.03,SSW,203,1.1,1.3,77,0.00,,,0.01,WUHU216HW,2013-02-03 01:06:00,
2013-02-02 19:11:00,34.0,27.5,30.03,SSW,209,1.3,2.3,77,0.00,,,0.01,WUHU216HW,2013-02-03 01:11:00,
2013-02-02 19:16:00,34.0,27.5,30.03,South,189,1.0,2.3,77,0.00,,,0.01,WUHU216HW,2013-02-03 01:16:00,
2013-02-02 19:21:00,34.0,27.5,30.03,SSW,203,0.4,0.8,77,0.00,,,0.01,WUHU216HW,2013-02-03 01:21:00,
2013-02-02 19:26:00,33.9,27.5,30.03,SSW,203,0.5,1.3,77,0.00,,,0.01,WUHU216HW,2013-02-03 01:26:00,
2013-02-02 19:31:00,33.7,27.3,30.03,SSW,203,0.4,0.5,77,0.00,,,0.01,WUHU216HW,2013-02-03 01:31:00,
2013-02-02 19:36:00,33.7,27.3,30.04,ESE,120,0.8,0.8,77,0.00,,,0.01,WUHU216HW,2013-02-03 01:36:00,
2013-02-02 19:41:00,33.3,27.2,30.03,NNE,17,0.7,2.1,78,0.00,,,0.01,WUHU216HW,2013-02-03 01:41:00,
2013-02-02 19:46:00,33.1,27.0,30.03,NNE,20,0.6,1.3,78,0.00,,,0.01,WUHU216HW,2013-02-03 01:46:00,
2013-02-02 19:51:00,33.0,26.9,30.03,NNE,23,0.5,1.0,78,0.00,,,0.01,WUHU216HW,2013-02-03 01:51:00,
2013-02-02 19:56:00,33.0,26.9,30.04,North,2,0.7,1.3,78,0.00,,,0.01,WUHU216HW,2013-02-03 01:56:00,
2013-02-02 20:01:00,33.0,26.9,30.04,NNW,345,0.5,0.8,78,0.00,,,0.01,WUHU216HW,2013-02-03 02:01:00,
2013-02-02 20:06:00,32.8,26.7,30.03,North,0,0.0,0.0,78,0.00,,,0.01,WUHU216HW,2013-02-03 02:06:00,
2013-02-02 20:11:00,32.8,26.7,30.03,East,90,0.2,0.2,78,0.00,,,0.01,WUHU216HW,2013-02-03 02:11:00,
2013-02-02 20:16:00,32.6,26.5,30.04,East,90,0.4,0.5,78,0.00,,,0.01,WUHU216HW,2013-02-03 02:16:00,
2013-02-02 20:21:00,32.6,26.2,30.03,North,0,0.0,0.0,77,0.00,,,0.01,WUHU216HW,2013-02-03 02:21:00,
2013-02-02 20:26:00,32.6,26.2,30.03,SSE,158,0.7,1.3,77,0.00,,,0.01,WUHU216HW,2013-02-03 02:26:00,
2013-02-02 20:31:00,32.4,26.0,30.04,SSE,158,0.4,0.5,77,0.00,,,0.01,WUHU216HW,2013-02-03 02:31:00,
2013-02-02 20:36:00,32.2,26.1,30.03,NE,54,0.5,0.8,78,0.00,,,0.01,WUHU216HW,2013-02-03 02:36:00,
2013-02-02 20:41:00,32.2,26.1,30.03,NNW,347,1.5,3.1,78,0.00,,,0.01,WUHU216HW,2013-02-03 02:41:00,
2013-02-02 20:46:00,32.6,27.1,30.03,NNW,334,2.0,3.9,80,0.00,,,0.01,WUHU216HW,2013-02-03 02:46:00,
2013-02-02 20:51:00,33.1,27.6,30.03,NW,318,1.7,3.3,80,0.00,,,0.01,WUHU216HW,2013-02-03 02:51:00,
2013-02-02 20:56:00,33.7,28.2,30.03,NW,320,2.0,3.9,80,0.00,,,0.01,WUHU216HW,2013-02-03 02:56:00,
2013-02-02 21:01:00,34.0,28.5,30.03,NNW,339,3.2,7.2,80,0.00,,,0.01,WUHU216HW,2013-02-03 03:01:00,
2013-02-02 21:06:00,34.4,28.9,30.03,NW,319,2.2,4.6,80,0.00,,,0.01,WUHU216HW,2013-02-03 03:06:00,
2013-02-02 21:11:00,34.8,28.9,30.03,NNW,329,3.0,4.6,79,0.00,,,0.01,WUHU216HW,2013-02-03 03:11:00,
2013-02-02 21:16:00,35.1,28.9,30.03,NNW,327,3.0,7.2,78,0.00,,,0.01,WUHU216HW,2013-02-03 03:16:00,
2013-02-02 21:21:00,35.5,29.0,30.03,NNW,337,3.0,5.6,77,0.00,,,0.01,WUHU216HW,2013-02-03 03:21:00,
2013-02-02 21:26:00,36.0,29.5,30.03,NNW,332,2.7,7.5,77,0.00,,,0.01,WUHU216HW,2013-02-03 03:26:00,
2013-02-02 21:31:00,36.4,29.6,30.03,NNW,329,2.4,4.1,76,0.00,,,0.01,WUHU216HW,2013-02-03 03:31:00,
2013-02-02 21:36:00,36.6,29.5,30.03,NW,307,3.6,4.9,75,0.00,,,0.01,WUHU216HW,2013-02-03 03:36:00,
2013-02-02 21:41:00,37.1,29.9,30.03,NNW,330,4.1,7.2,75,0.00,,,0.01,WUHU216HW,2013-02-03 03:41:00,
2013-02-02 21:46:00,37.5,30.0,30.03,NW,322,5.3,7.9,74,0.00,,,0.01,WUHU216HW,2013-02-03 03:46:00,
2013-02-02 21:51:00,37.6,29.8,30.03,NW,320,3.8,9.8,73,0.00,,,0.01,WUHU216HW,2013-02-03 03:51:00,
2013-02-02 21:56:00,37.8,30.0,30.03,NW,313,4.9,9.8,73,0.00,,,0.01,WUHU216HW,2013-02-03 03:56:00,
2013-02-02 22:01:00,37.8,30.0,30.03,NNW,330,4.2,5.9,73,0.00,,,0.01,WUHU216HW,2013-02-03 04:01:00,
2013-02-02 22:06:00,37.8,29.6,30.03,NW,326,5.0,7.9,72,0.00,,,0.01,WUHU216HW,2013-02-03 04:06:00,
2013-02-02 22:11:00,38.0,29.8,30.03,NNW,327,4.7,6.9,72,0.00,,,0.01,WUHU216HW,2013-02-03 04:11:00,
2013-02-02 22:16:00,38.0,29.8,30.03,NW,326,3.6,5.6,72,0.00,,,0.01,WUHU216HW,2013-02-03 04:16:00,
2013-02-02 22:21:00,37.8,29.6,30.03,NW,316,4.3,6.7,72,0.00,,,0.01,WUHU216HW,2013-02-03 04:21:00,
2013-02-02 22:26:00,37.8,29.6,30.03,NNW,332,5.5,8.7,72,0.00,,,0.01,WUHU216HW,2013-02-03 04:26:00,
2013-02-02 22:31:00,37.8,29.6,30.04,NW,320,3.9,7.5,72,0.00,,,0.01,WUHU216HW,2013-02-03 04:31:00,
2013-02-02 22:36:00,37.6,29.4,30.04,NW,318,4.4,6.2,72,0.00,,,0.01,WUHU216HW,2013-02-03 04:36:00,
2013-02-02 22:41:00,37.6,29.4,30.04,NW,322,3.9,6.9,72,0.00,,,0.01,WUHU216HW,2013-02-03 04:41:00,
2013-02-02 22:46:00,37.6,29.4,30.04,NW,323,4.7,8.5,72,0.00,,,0.01,WUHU216HW,2013-02-03 04:46:00,
2013-02-02 22:51:00,37.8,29.3,30.04,NNW,336,5.2,8.3,71,0.00,,,0.01,WUHU216HW,2013-02-03 04:51:00,
2013-02-02 22:56:00,38.0,29.5,30.04,NW,323,5.6,10.6,71,0.00,,,0.01,WUHU216HW,2013-02-03 04:56:00,
2013-02-02 23:02:00,38.0,29.5,30.05,NNW,332,4.2,6.2,71,0.00,,,0.01,WUHU216HW,2013-02-03 05:02:00,
2013-02-02 23:07:00,37.8,29.6,30.05,NNW,329,2.9,6.2,72,0.00,,,0.01,WUHU216HW,2013-02-03 05:07:00,
2013-02-02 23:12:00,37.8,29.6,30.05,NNW,343,2.6,3.9,72,0.00,,,0.01,WUHU216HW,2013-02-03 05:12:00,
2013-02-02 23:17:00,37.6,29.4,30.06,NW,318,3.7,7.9,72,0.00,,,0.01,WUHU216HW,2013-02-03 05:17:00,
2013-02-02 23:22:00,37.5,29.3,30.06,NW,321,4.5,8.3,72,0.00,,,0.01,WUHU216HW,2013-02-03 05:22:00,
2013-02-02 23:27:00,37.5,29.3,30.06,NNW,329,4.5,5.9,72,0.00,,,0.01,WUHU216HW,2013-02-03 05:27:00,
2013-02-02 23:32:00,37.5,29.3,30.07,NNW,331,5.1,7.7,72,0.00,,,0.01,WUHU216HW,2013-02-03 05:32:00,
2013-02-02 23:37:00,37.5,29.3,30.07,NNW,327,4.7,6.2,72,0.00,,,0.01,WUHU216HW,2013-02-03 05:37:00,
2013-02-02 23:42:00,37.5,29.3,30.07,NW,325,5.1,8.7,72,0.00,,,0.01,WUHU216HW,2013-02-03 05:42:00,
2013-02-02 23:47:00,37.5,29.3,30.08,NNW,330,6.3,10.6,72,0.00,,,0.01,WUHU216HW,2013-02-03 05:47:00,
2013-02-02 23:52:00,37.3,29.2,30.08,NW,322,5.6,9.8,72,0.00,,,0.01,WUHU216HW,2013-02-03 05:52:00,
2013-02-02 23:57:00,37.3,29.2,30.08,NNW,332,8.3,12.9,72,0.00,,,0.01,WUHU216HW,2013-02-03 05:57:00,